createdAt,value
2018-07-12T00:01:35.449Z,29.98
2018-07-12T00:04:08.727Z,30.97
2018-07-12T00:06:42.983Z,31.73
2018-07-12T00:09:16.278Z,30.32
2018-07-12T00:11:49.540Z,26.30
2018-07-12T00:14:23.079Z,28.52
2018-07-12T00:16:57.352Z,30.05
2018-07-12T00:19:30.891Z,28.98
2018-07-12T00:22:05.152Z,27.15
2018-07-12T00:24:39.594Z,28.70
2018-07-12T00:27:12.874Z,30.82
2018-07-12T00:29:46.423Z,28.77
2018-07-12T00:32:19.684Z,29.87
2018-07-12T00:34:53.203Z,30.77
2018-07-12T00:37:26.468Z,32.55
2018-07-12T00:40:00.749Z,36.65
2018-07-12T00:42:33.998Z,34.90
2018-07-12T00:45:07.290Z,34.13
2018-07-12T00:47:41.879Z,34.67
2018-07-12T00:50:15.224Z,36.40
2018-07-12T00:52:49.469Z,37.83
2018-07-12T00:55:22.752Z,37.63
2018-07-12T00:57:56.014Z,37.95
2018-07-12T01:00:29.327Z,36.73
2018-07-12T01:03:02.789Z,38.20
2018-07-12T01:05:36.068Z,31.23
2018-07-12T01:08:10.305Z,34.55
2018-07-12T01:10:44.668Z,30.48
2018-07-12T01:13:17.935Z,28.32
2018-07-12T01:15:52.193Z,25.43
2018-07-12T01:18:25.449Z,24.95
2018-07-12T01:20:58.752Z,28.55
2018-07-12T01:23:32.197Z,32.23
2018-07-12T01:26:05.832Z,31.95
2018-07-12T01:28:39.169Z,34.10
2018-07-12T01:31:12.464Z,29.60
2018-07-12T01:33:46.715Z,35.40
2018-07-12T01:36:20.017Z,27.60
2018-07-12T01:38:53.280Z,27.48
2018-07-12T01:41:26.579Z,28.87
2018-07-12T01:44:00.832Z,30.92
2018-07-12T01:46:34.140Z,35.03
2018-07-12T01:49:07.384Z,29.92
2018-07-12T01:51:40.679Z,30.48
2018-07-12T01:54:13.921Z,30.95
2018-07-12T01:56:48.248Z,30.30
2018-07-12T01:59:21.778Z,28.83
2018-07-12T02:01:55.056Z,27.22
2018-07-12T02:04:28.317Z,31.37
2018-07-12T02:07:01.876Z,24.50
2018-07-12T02:09:35.125Z,31.68
2018-07-12T02:12:08.409Z,29.30
2018-07-12T02:14:41.645Z,33.42
2018-07-12T02:17:14.954Z,31.35
2018-07-12T02:19:49.233Z,33.25
2018-07-12T02:22:22.522Z,31.23
2018-07-12T02:24:55.775Z,30.50
2018-07-12T02:27:29.555Z,33.78
2018-07-12T02:30:02.820Z,28.30
2018-07-12T02:32:37.120Z,31.95
2018-07-12T02:35:11.549Z,30.23
2018-07-12T02:37:45.913Z,30.88
2018-07-12T02:40:19.203Z,31.25
2018-07-12T02:42:52.484Z,34.38
2018-07-12T02:45:25.749Z,31.57
2018-07-12T02:48:00.000Z,33.20
2018-07-12T02:50:33.304Z,35.60
2018-07-12T02:53:06.799Z,35.40
2018-07-12T02:55:40.148Z,38.17
2018-07-12T02:58:13.412Z,39.30
2018-07-12T03:00:46.676Z,44.23
2018-07-12T03:03:20.304Z,32.90
2018-07-12T03:05:53.572Z,28.98
2018-07-12T03:08:27.080Z,31.65
2018-07-12T03:11:00.761Z,21.52
2018-07-12T03:13:34.037Z,23.10
2018-07-12T03:16:07.501Z,30.50
2018-07-12T03:18:40.793Z,22.95
2018-07-12T03:21:14.033Z,19.02
2018-07-12T03:23:47.607Z,18.12
2018-07-12T03:26:21.385Z,18.15
2018-07-12T03:28:54.669Z,14.90
2018-07-12T03:31:27.925Z,18.82
2018-07-12T03:34:01.470Z,16.45
2018-07-12T03:36:34.716Z,13.05
2018-07-12T03:39:08.988Z,12.78
2018-07-12T03:41:42.231Z,15.00
2018-07-12T03:44:15.797Z,15.05
2018-07-12T03:46:49.225Z,15.95
2018-07-12T03:49:22.516Z,11.43
2018-07-12T03:51:56.018Z,13.90
2018-07-12T03:54:30.446Z,13.20
2018-07-12T03:57:03.761Z,13.15
2018-07-12T03:59:38.048Z,15.32
2018-07-12T04:02:11.579Z,13.32
2018-07-12T04:04:44.812Z,12.25
2018-07-12T04:07:18.100Z,16.87
2018-07-12T04:09:51.629Z,13.60
2018-07-12T04:12:24.915Z,14.73
2018-07-12T04:14:58.161Z,14.70
2018-07-12T04:17:33.492Z,14.90
2018-07-12T04:20:07.049Z,12.25
2018-07-12T04:22:40.570Z,9.65
2018-07-12T04:25:13.796Z,11.33
2018-07-12T04:27:47.055Z,13.65
2018-07-12T04:30:20.308Z,11.57
2018-07-12T04:32:54.601Z,10.23
2018-07-12T04:35:28.828Z,10.58
2018-07-12T04:38:02.103Z,8.95
2018-07-12T04:40:35.352Z,11.40
2018-07-12T04:43:08.603Z,8.58
2018-07-12T04:45:42.871Z,9.30
2018-07-12T04:48:17.106Z,9.53
2018-07-12T04:50:51.383Z,9.40
2018-07-12T04:53:24.620Z,11.53
2018-07-12T04:55:57.881Z,10.23
2018-07-12T04:58:31.162Z,7.83
2018-07-12T05:01:04.623Z,12.00
2018-07-12T05:03:37.882Z,10.28
2018-07-12T05:06:11.144Z,5.45
2018-07-12T05:08:44.373Z,8.05
2018-07-12T05:11:17.638Z,8.48
2018-07-12T05:13:52.645Z,5.83
2018-07-12T05:19:09.772Z,6.03
2018-07-12T05:21:43.294Z,5.40
2018-07-12T05:24:16.574Z,6.80
2018-07-12T05:26:50.837Z,6.45
2018-07-12T05:29:25.093Z,3.87
2018-07-12T05:31:58.329Z,8.15
2018-07-12T05:34:31.594Z,5.03
2018-07-12T05:37:07.344Z,4.33
2018-07-12T05:39:42.104Z,5.12
2018-07-12T05:42:16.961Z,6.78
2018-07-12T05:45:00.563Z,4.05
2018-07-12T05:47:35.384Z,5.22
2018-07-12T05:50:10.186Z,4.40
2018-07-12T05:52:45.898Z,3.27
2018-07-12T05:55:20.646Z,5.55
2018-07-12T05:57:55.408Z,4.50
2018-07-12T06:00:30.158Z,2.77
2018-07-12T06:03:12.549Z,4.08
2018-07-12T06:05:47.392Z,3.30
2018-07-12T06:08:22.130Z,6.25
2018-07-12T06:10:56.893Z,4.97
2018-07-12T06:13:32.651Z,3.77
2018-07-12T06:16:07.373Z,4.45
2018-07-12T06:18:42.311Z,4.30
2018-07-12T06:21:17.085Z,3.60
2018-07-12T06:23:52.843Z,3.10
2018-07-12T06:26:27.520Z,4.45
2018-07-12T06:29:02.297Z,5.90
2018-07-12T06:31:37.016Z,2.98
2018-07-12T06:34:11.801Z,4.22
2018-07-12T06:36:46.500Z,4.65
2018-07-12T06:39:21.282Z,7.03
2018-07-12T06:41:55.980Z,2.70
2018-07-12T06:44:30.758Z,2.72
2018-07-12T06:47:05.868Z,4.78
2018-07-12T06:49:41.611Z,2.58
2018-07-12T06:52:16.359Z,5.25
2018-07-12T06:54:51.100Z,1.65
2018-07-12T06:57:25.855Z,2.33
2018-07-12T07:00:00.312Z,15.77
2018-07-12T07:02:35.000Z,3.37
2018-07-12T07:05:09.874Z,3.72
2018-07-12T07:07:44.599Z,2.35
2018-07-12T07:10:19.367Z,6.67
2018-07-12T07:12:53.647Z,3.65
2018-07-12T07:15:28.429Z,3.37
2018-07-12T07:18:14.929Z,4.15
2018-07-12T07:20:56.958Z,3.22
2018-07-12T07:26:17.342Z,3.33
2018-07-12T07:28:53.838Z,2.80
2018-07-12T07:31:30.170Z,2.77
2018-07-12T07:34:06.536Z,6.13
2018-07-12T07:36:42.394Z,2.50
2018-07-12T07:39:19.652Z,3.97
2018-07-12T07:41:55.389Z,2.43
2018-07-12T07:44:32.029Z,2.17
2018-07-12T07:47:07.174Z,1.75
2018-07-12T07:49:43.047Z,4.45
2018-07-12T07:52:17.254Z,3.40
2018-07-12T07:54:52.005Z,1.40
2018-07-12T07:57:26.726Z,2.15
2018-07-12T08:00:02.248Z,5.80
2018-07-12T08:02:39.816Z,3.52
2018-07-12T08:05:26.192Z,3.15
2018-07-12T08:08:02.433Z,1.50
2018-07-12T08:10:38.526Z,3.67
2018-07-12T08:13:13.722Z,1.77
2018-07-12T08:15:48.602Z,4.10
2018-07-12T08:18:24.223Z,1.70
2018-07-12T08:21:01.075Z,3.02
2018-07-12T08:23:35.994Z,4.28
2018-07-12T08:26:12.836Z,5.45
2018-07-12T08:28:48.506Z,2.10
2018-07-12T08:31:25.349Z,3.22
2018-07-12T08:34:01.533Z,4.12
2018-07-12T08:37:09.009Z,3.40
2018-07-12T08:39:44.780Z,1.90
2018-07-12T08:42:19.586Z,4.03
2018-07-12T08:44:55.497Z,3.75
2018-07-12T08:47:30.281Z,3.65
2018-07-12T08:50:05.077Z,2.83
2018-07-12T08:52:39.841Z,2.10
2018-07-12T08:55:14.584Z,2.83
2018-07-12T08:57:48.837Z,6.10
2018-07-12T09:00:24.616Z,2.45
2018-07-12T09:02:59.475Z,2.40
2018-07-12T09:05:35.373Z,2.77
2018-07-12T09:08:10.120Z,1.77
2018-07-12T09:10:44.820Z,3.17
2018-07-12T09:13:19.548Z,1.77
2018-07-12T09:15:54.404Z,2.67
2018-07-12T09:18:29.285Z,3.72
2018-07-12T09:21:04.148Z,3.20
2018-07-12T09:23:40.204Z,1.95
2018-07-12T09:26:15.062Z,3.50
2018-07-12T09:28:49.896Z,2.20
2018-07-12T09:31:24.845Z,3.33
2018-07-12T09:33:59.107Z,1.82
2018-07-12T09:36:34.866Z,3.65
2018-07-12T09:39:09.601Z,3.02
2018-07-12T09:41:44.406Z,1.87
2018-07-12T09:44:19.208Z,2.37
2018-07-12T09:46:53.976Z,3.27
2018-07-12T09:49:29.705Z,2.60
2018-07-12T09:52:09.597Z,1.67
2018-07-12T09:54:44.313Z,3.20
2018-07-12T09:57:30.092Z,2.42
2018-07-12T10:00:05.403Z,2.47
2018-07-12T10:02:45.324Z,2.37
2018-07-12T10:05:25.302Z,2.95
2018-07-12T10:08:05.101Z,2.35
2018-07-12T10:10:44.623Z,3.10
2018-07-12T10:13:25.353Z,2.15
2018-07-12T10:16:04.104Z,2.02
2018-07-12T10:18:38.860Z,2.62
2018-07-12T10:21:13.590Z,2.67
2018-07-12T10:23:49.400Z,5.03
2018-07-12T10:26:24.160Z,3.22
2018-07-12T10:28:58.402Z,4.25
2018-07-12T10:31:34.192Z,2.77
2018-07-12T10:34:08.936Z,2.30
2018-07-12T10:36:43.672Z,1.75
2018-07-12T10:39:18.979Z,3.70
2018-07-12T10:41:53.960Z,3.33
2018-07-12T10:44:28.255Z,3.70
2018-07-12T10:47:02.516Z,3.75
2018-07-12T10:49:37.352Z,3.52
2018-07-12T10:52:12.056Z,5.28
2018-07-12T10:54:46.799Z,2.80
2018-07-12T10:57:22.607Z,2.37
2018-07-12T10:59:56.899Z,2.83
2018-07-12T11:02:32.679Z,3.52
2018-07-12T11:05:07.035Z,6.42
2018-07-12T11:07:41.516Z,5.93
2018-07-12T11:10:15.807Z,5.05
2018-07-12T11:13:01.307Z,3.02
2018-07-12T11:15:35.563Z,2.37
2018-07-12T11:18:10.296Z,5.25
2018-07-12T11:20:45.055Z,4.97
2018-07-12T11:23:19.757Z,3.65
2018-07-12T11:25:54.479Z,5.30
2018-07-12T11:28:29.172Z,2.60
2018-07-12T11:31:03.947Z,2.47
2018-07-12T11:33:40.687Z,2.95
2018-07-12T11:36:15.449Z,4.33
2018-07-12T11:38:50.407Z,3.08
2018-07-12T11:41:25.852Z,3.97
2018-07-12T11:44:00.329Z,4.50
2018-07-12T11:46:34.816Z,3.83
2018-07-12T11:49:09.264Z,3.23
2018-07-12T11:51:43.680Z,3.23
2018-07-12T11:54:18.323Z,4.10
2018-07-12T11:56:52.753Z,2.27
2018-07-12T11:59:27.749Z,4.53
2018-07-12T12:02:03.260Z,2.63
2018-07-12T12:04:38.917Z,2.80
2018-07-12T12:07:13.372Z,4.03
2018-07-12T12:09:48.919Z,2.40
2018-07-12T12:12:23.652Z,4.20
2018-07-12T12:14:58.420Z,3.70
2018-07-12T12:17:33.144Z,3.25
2018-07-12T12:20:08.489Z,3.02
2018-07-12T12:22:43.303Z,4.12
2018-07-12T12:25:17.655Z,2.52
2018-07-12T12:27:52.456Z,3.25
2018-07-12T12:30:27.794Z,3.08
2018-07-12T12:33:02.120Z,3.35
2018-07-12T12:35:37.922Z,2.50
2018-07-12T12:38:12.648Z,2.15
2018-07-12T12:40:47.410Z,3.05
2018-07-12T12:43:21.653Z,5.75
2018-07-12T12:45:56.366Z,3.15
2018-07-12T12:48:32.172Z,2.77
2018-07-12T12:51:07.016Z,2.40
2018-07-12T12:53:41.733Z,2.67
2018-07-12T12:56:17.516Z,3.17
2018-07-12T12:58:52.209Z,2.65
2018-07-12T13:01:26.946Z,7.03
2018-07-12T13:04:01.733Z,2.20
2018-07-12T13:06:36.656Z,3.42
2018-07-12T13:09:11.379Z,2.65
2018-07-12T13:11:46.179Z,3.25
2018-07-12T13:14:20.950Z,2.42
2018-07-12T13:16:56.890Z,2.42
2018-07-12T13:19:32.622Z,3.45
2018-07-12T13:22:07.426Z,2.25
2018-07-12T13:24:41.691Z,3.22
2018-07-12T13:27:16.493Z,1.72
2018-07-12T13:29:51.243Z,3.37
2018-07-12T13:32:27.024Z,3.40
2018-07-12T13:35:01.947Z,3.15
2018-07-12T13:37:36.748Z,3.85
2018-07-12T13:40:11.449Z,2.25
2018-07-12T13:42:46.217Z,4.08
2018-07-12T13:45:21.148Z,3.25
2018-07-12T13:47:55.952Z,2.10
2018-07-12T13:50:30.675Z,10.00
2018-07-12T13:53:05.744Z,3.27
2018-07-12T13:55:41.494Z,5.53
2018-07-12T13:58:17.251Z,2.47
2018-07-12T14:00:51.997Z,2.25
2018-07-12T14:03:26.407Z,5.53
2018-07-12T14:06:01.166Z,4.45
2018-07-12T14:08:35.937Z,4.15
2018-07-12T14:11:10.804Z,3.55
2018-07-12T14:13:45.113Z,2.92
2018-07-12T14:16:19.386Z,5.60
2018-07-12T14:18:54.237Z,5.15
2018-07-12T14:21:28.993Z,5.12
2018-07-12T14:24:03.312Z,2.62
2018-07-12T14:26:38.025Z,2.92
2018-07-12T14:29:12.798Z,5.58
2018-07-12T14:31:47.531Z,3.90
2018-07-12T14:34:22.268Z,4.25
2018-07-12T14:36:56.970Z,3.77
2018-07-12T14:39:32.749Z,3.02
2018-07-12T14:42:07.470Z,2.65
2018-07-12T14:44:42.230Z,2.83
2018-07-12T14:47:16.967Z,3.60
2018-07-12T14:49:51.255Z,2.62
2018-07-12T14:52:25.993Z,6.30
2018-07-12T14:55:01.845Z,5.37
2018-07-12T14:57:36.774Z,17.48
2018-07-12T15:00:11.519Z,7.90
2018-07-12T15:02:45.771Z,45.25
2018-07-12T15:05:20.569Z,2.58
2018-07-12T15:07:55.455Z,3.75
2018-07-12T15:10:30.236Z,2.80
2018-07-12T15:13:05.013Z,3.72
2018-07-12T15:15:39.830Z,4.22
2018-07-12T15:18:14.668Z,2.58
2018-07-12T15:20:49.448Z,2.40
2018-07-12T15:23:29.220Z,4.20
2018-07-12T15:26:12.382Z,6.45
2018-07-12T15:28:48.104Z,2.90
2018-07-12T15:31:28.055Z,5.25
2018-07-12T15:34:03.476Z,3.98
2018-07-12T15:36:38.534Z,4.60
2018-07-12T15:39:13.871Z,4.70
2018-07-12T15:41:51.493Z,4.15
2018-07-12T15:44:28.021Z,3.70
2018-07-12T15:47:04.691Z,2.75
2018-07-12T15:49:39.898Z,4.12
2018-07-12T15:52:14.969Z,3.02
2018-07-12T15:54:51.248Z,4.15
2018-07-12T15:57:27.813Z,3.35
2018-07-12T16:00:03.681Z,2.55
2018-07-12T16:02:41.006Z,3.05
2018-07-12T16:05:17.411Z,2.75
2018-07-12T16:07:53.981Z,2.60
2018-07-12T16:10:31.053Z,2.37
2018-07-12T16:13:06.124Z,3.10
2018-07-12T16:15:40.912Z,3.65
2018-07-12T16:18:16.942Z,3.08
2018-07-12T16:20:51.741Z,3.45
2018-07-12T16:23:25.954Z,3.52
2018-07-12T16:26:00.708Z,2.98
2018-07-12T16:28:35.475Z,3.10
2018-07-12T16:31:11.278Z,3.15
2018-07-12T16:33:46.007Z,2.70
2018-07-12T16:36:20.811Z,4.83
2018-07-12T16:38:55.105Z,2.55
2018-07-12T16:41:29.875Z,3.50
2018-07-12T16:44:04.726Z,3.08
2018-07-12T16:46:40.308Z,3.65
2018-07-12T16:49:32.740Z,2.85
2018-07-12T16:52:38.241Z,3.45
2018-07-12T16:58:22.752Z,5.15
2018-07-12T17:01:54.173Z,5.03
2018-07-12T17:04:50.566Z,3.52
2018-07-12T17:10:34.543Z,4.10
2018-07-12T17:16:02.209Z,3.65
2018-07-12T17:18:51.653Z,4.25
2018-07-12T17:21:41.556Z,3.77
2018-07-12T17:24:16.565Z,3.60
2018-07-12T17:26:51.366Z,4.83
2018-07-12T17:29:26.090Z,4.05
2018-07-12T17:32:01.897Z,6.83
2018-07-12T17:34:36.606Z,5.22
2018-07-12T17:37:11.392Z,6.37
2018-07-12T17:39:46.152Z,4.60
2018-07-12T17:42:20.849Z,3.22
2018-07-12T17:44:55.597Z,3.52
2018-07-12T17:47:30.374Z,5.28
2018-07-12T17:50:05.454Z,4.55
2018-07-12T17:52:40.224Z,3.72
2018-07-12T17:55:40.825Z,3.40
2018-07-12T17:58:38.152Z,4.83
2018-07-12T18:01:42.074Z,3.25
2018-07-12T18:07:21.927Z,3.95
2018-07-12T18:10:14.036Z,3.85
2018-07-12T18:13:11.257Z,5.42
2018-07-12T18:16:07.068Z,4.08
2018-07-12T18:19:06.167Z,3.83
2018-07-12T18:21:55.556Z,4.17
2018-07-12T18:24:39.852Z,4.12
2018-07-12T18:30:13.294Z,5.00
2018-07-12T18:35:51.607Z,7.58
2018-07-12T18:38:27.901Z,2.90
2018-07-12T18:41:11.003Z,2.85
2018-07-12T18:43:47.272Z,3.42
2018-07-12T18:46:35.322Z,3.02
2018-07-12T18:49:11.806Z,2.60
2018-07-12T18:51:48.103Z,4.03
2018-07-12T18:54:24.575Z,3.40
2018-07-12T18:56:59.873Z,4.25
2018-07-12T18:59:36.040Z,4.60
2018-07-12T19:02:11.468Z,3.77
2018-07-12T19:04:48.789Z,2.90
2018-07-12T19:07:24.058Z,2.60
2018-07-12T19:10:04.351Z,3.33
2018-07-12T19:12:38.786Z,2.70
2018-07-12T19:15:14.347Z,4.05
2018-07-12T19:17:49.347Z,3.05
2018-07-12T19:20:23.647Z,2.60
2018-07-12T19:22:58.363Z,4.15
2018-07-12T19:25:34.155Z,5.47
2018-07-12T19:28:08.944Z,5.83
2018-07-12T19:30:43.671Z,7.92
2018-07-12T19:33:18.483Z,7.50
2018-07-12T19:35:54.282Z,9.75
2018-07-12T19:38:29.009Z,7.12
2018-07-12T19:41:03.283Z,7.08
2018-07-12T19:43:38.638Z,7.60
2018-07-12T19:46:13.425Z,6.22
2018-07-12T19:48:48.257Z,5.62
2018-07-12T19:51:24.040Z,8.80
2018-07-12T19:54:20.433Z,4.72
2018-07-12T19:56:59.565Z,4.87
2018-07-12T19:59:36.720Z,7.28
2018-07-12T20:02:19.056Z,5.20
2018-07-12T20:04:57.793Z,4.17
2018-07-12T20:07:32.585Z,5.12
2018-07-12T20:10:07.372Z,5.83
2018-07-12T20:12:42.110Z,4.10
2018-07-12T20:15:17.455Z,5.03
2018-07-12T20:17:52.224Z,7.03
2018-07-12T20:20:27.014Z,5.17
2018-07-12T20:23:01.957Z,5.25
2018-07-12T20:25:36.876Z,4.70
2018-07-12T20:28:11.669Z,4.62
2018-07-12T20:30:48.372Z,6.30
2018-07-12T20:33:22.620Z,5.83
2018-07-12T20:35:58.391Z,6.08
2018-07-12T20:38:33.157Z,6.55
2018-07-12T20:41:08.565Z,8.60
2018-07-12T20:43:43.324Z,6.50
2018-07-12T20:46:18.102Z,6.70
2018-07-12T20:48:52.866Z,5.17
2018-07-12T20:51:27.619Z,8.20
2018-07-12T20:54:02.424Z,6.90
2018-07-12T20:56:37.164Z,6.87
2018-07-12T20:59:11.916Z,7.60
2018-07-12T21:01:46.635Z,6.72
2018-07-12T21:04:21.654Z,7.65
2018-07-12T21:06:56.400Z,8.98
2018-07-12T21:09:31.111Z,7.90
2018-07-12T21:12:06.956Z,9.18
2018-07-12T21:14:41.169Z,7.05
2018-07-12T21:17:16.154Z,9.60
2018-07-12T21:19:50.907Z,9.45
2018-07-12T21:22:25.685Z,21.93
2018-07-12T21:25:00.428Z,17.80
2018-07-12T21:27:35.180Z,16.25
2018-07-12T21:30:11.576Z,9.30
2018-07-12T21:32:45.834Z,8.80
2018-07-12T21:35:20.536Z,8.03
2018-07-12T21:37:55.326Z,7.35
2018-07-12T21:40:31.024Z,9.00
2018-07-12T21:43:06.817Z,9.45
2018-07-12T21:45:42.512Z,8.30
2018-07-12T21:48:18.285Z,7.35
2018-07-12T21:50:53.020Z,7.78
2018-07-12T21:53:27.756Z,6.78
2018-07-12T21:56:02.500Z,6.75
2018-07-12T21:58:37.272Z,7.20
2018-07-12T22:01:12.050Z,7.03
2018-07-12T22:03:46.784Z,7.75
2018-07-12T22:06:27.729Z,6.00
2018-07-12T22:09:02.490Z,6.55
2018-07-12T22:11:36.759Z,10.75
2018-07-12T22:14:12.561Z,8.55
2018-07-12T22:16:47.831Z,7.60
2018-07-12T22:19:22.564Z,6.87
2018-07-12T22:21:57.338Z,6.62
2018-07-12T22:24:32.188Z,10.00
2018-07-12T22:27:06.430Z,7.15
2018-07-12T22:29:41.154Z,9.78
2018-07-12T22:32:15.879Z,8.28
2018-07-12T22:34:50.633Z,10.40
2018-07-12T22:37:25.378Z,9.23
2018-07-12T22:40:00.084Z,10.20
2018-07-12T22:42:34.961Z,9.65
2018-07-12T22:45:09.243Z,10.53
2018-07-12T22:47:45.007Z,15.63
2018-07-12T22:50:19.278Z,16.70
2018-07-12T22:52:54.101Z,12.25
2018-07-12T22:55:28.856Z,17.05
2018-07-12T22:58:04.637Z,18.60
2018-07-12T23:00:39.398Z,17.67
2018-07-12T23:03:15.194Z,20.37
2018-07-12T23:05:49.957Z,15.85
2018-07-12T23:08:25.809Z,20.48
2018-07-12T23:11:00.584Z,18.87
2018-07-12T23:13:35.365Z,18.40
2018-07-12T23:16:11.121Z,20.75
2018-07-12T23:18:46.925Z,20.00
2018-07-12T23:21:21.692Z,15.85
2018-07-12T23:23:56.489Z,16.97
2018-07-12T23:26:32.900Z,21.35
2018-07-12T23:29:07.693Z,18.07
2018-07-12T23:31:41.948Z,15.60
2018-07-12T23:34:16.823Z,13.60
2018-07-12T23:36:51.581Z,13.72
2018-07-12T23:39:26.539Z,10.85
2018-07-12T23:42:01.272Z,14.33
2018-07-12T23:44:36.065Z,13.55
2018-07-12T23:47:10.810Z,10.43
2018-07-12T23:49:46.612Z,13.20
2018-07-12T23:52:21.365Z,11.12
2018-07-12T23:54:55.613Z,10.18
2018-07-12T23:57:30.359Z,12.63
